Time,TemperatureF,DewpointF,PressureIn,WindDirection,WindDirectionDegrees,WindSpeedMPH,WindSpeedGustMPH,Humidity,HourlyPrecipIn,Conditions,Clouds,dailyrainin,SoftwareType,DateUTC
2013-01-11 00:00:00,36.0,35.2,29.43,SSE,165,0.0,14.0,97,0.00,,,0.00,Wunderground v.1.13,2013-01-11 07:00:00,
2013-01-11 00:05:00,36.2,35.4,29.43,SSE,165,0.0,14.0,97,0.00,,,0.00,Wunderground v.1.13,2013-01-11 07:05:00,
2013-01-11 00:10:00,36.2,35.4,29.43,SSE,165,0.0,14.0,97,0.00,,,0.00,Wunderground v.1.13,2013-01-11 07:10:00,
2013-01-11 00:15:00,36.3,35.5,29.43,SSE,165,0.0,14.0,97,0.00,,,0.00,Wunderground v.1.13,2013-01-11 07:15:00,
2013-01-11 00:20:00,36.3,35.8,29.42,SSE,165,0.0,14.0,98,0.00,,,0.00,Wunderground v.1.13,2013-01-11 07:20:00,
2013-01-11 00:25:00,36.3,35.8,29.42,SSE,165,0.0,14.0,98,0.00,,,0.00,Wunderground v.1.13,2013-01-11 07:25:00,
2013-01-11 00:30:00,36.3,35.8,29.42,SSE,165,0.0,14.0,98,0.00,,,0.00,Wunderground v.1.13,2013-01-11 07:30:00,
2013-01-11 00:35:00,36.5,36.0,29.41,SSE,165,0.0,14.0,98,0.00,,,0.00,Wunderground v.1.13,2013-01-11 07:35:00,
2013-01-11 00:40:00,36.5,36.0,29.41,SSE,165,0.0,14.0,98,0.00,,,0.00,Wunderground v.1.13,2013-01-11 07:40:00,
2013-01-11 00:45:00,36.5,36.0,29.41,SSE,165,0.0,14.0,98,0.00,,,0.00,Wunderground v.1.13,2013-01-11 07:45:00,
2013-01-11 00:50:00,36.3,35.8,29.39,SSE,165,0.0,14.0,98,0.00,,,0.00,Wunderground v.1.13,2013-01-11 07:50:00,
2013-01-11 00:55:00,36.3,35.8,29.39,SSE,165,0.0,14.0,98,0.00,,,0.00,Wunderground v.1.13,2013-01-11 07:55:00,
2013-01-11 01:00:00,36.3,35.8,29.39,SSE,165,0.0,14.0,98,0.00,,,0.00,Wunderground v.1.13,2013-01-11 08:00:00,
2013-01-11 01:10:00,36.3,35.8,29.39,SSW,196,1.0,1.0,98,0.00,,,0.00,Wunderground v.1.13,2013-01-11 08:10:00,
2013-01-11 01:15:00,36.3,35.8,29.39,SSW,196,1.0,1.0,98,0.00,,,0.00,Wunderground v.1.13,2013-01-11 08:15:00,
2013-01-11 01:20:00,36.2,35.7,29.39,SSW,195,0.0,14.0,98,0.00,,,0.00,Wunderground v.1.13,2013-01-11 08:20:00,
2013-01-11 01:25:00,36.2,35.7,29.39,SSW,195,0.0,14.0,98,0.00,,,0.00,Wunderground v.1.13,2013-01-11 08:25:00,
2013-01-11 01:30:00,36.2,35.7,29.39,SSW,203,0.0,14.0,98,0.00,,,0.00,Wunderground v.1.13,2013-01-11 08:30:00,
2013-01-11 01:35:00,36.2,35.7,29.38,South,182,0.0,14.0,98,0.00,,,0.00,Wunderground v.1.13,2013-01-11 08:35:00,
2013-01-11 01:40:00,36.0,35.5,29.38,South,170,1.0,1.0,98,0.00,,,0.00,Wunderground v.1.13,2013-01-11 08:40:00,
2013-01-11 01:45:00,36.0,35.5,29.37,South,171,0.0,14.0,98,0.00,,,0.00,Wunderground v.1.13,2013-01-11 08:45:00,
2013-01-11 01:50:00,36.0,35.5,29.37,SSW,205,0.0,14.0,98,0.00,,,0.00,Wunderground v.1.13,2013-01-11 08:50:00,
2013-01-11 01:55:00,35.9,35.4,29.37,SSW,205,0.0,14.0,98,0.00,,,0.00,Wunderground v.1.13,2013-01-11 08:55:00,
2013-01-11 02:00:00,35.9,35.4,29.37,SSW,203,0.0,14.0,98,0.00,,,0.00,Wunderground v.1.13,2013-01-11 09:00:00,
2013-01-11 02:10:00,35.9,35.4,29.37,SSW,203,0.0,14.0,98,0.00,,,0.00,Wunderground v.1.13,2013-01-11 09:10:00,
2013-01-11 02:15:00,35.8,35.3,29.37,SSW,203,0.0,14.0,98,0.00,,,0.00,Wunderground v.1.13,2013-01-11 09:15:00,
2013-01-11 02:20:00,35.9,35.4,29.37,SSW,200,0.0,14.0,98,0.00,,,0.00,Wunderground v.1.13,2013-01-11 09:20:00,
2013-01-11 02:30:00,35.9,35.4,29.37,SSW,200,0.0,14.0,98,0.00,,,0.00,Wunderground v.1.13,2013-01-11 09:30:00,
2013-01-11 02:35:00,35.9,35.4,29.36,SSW,200,0.0,14.0,98,0.00,,,0.00,Wunderground v.1.13,2013-01-11 09:35:00,
2013-01-11 02:45:00,35.9,35.4,29.36,SSW,200,0.0,14.0,98,0.00,,,0.00,Wunderground v.1.13,2013-01-11 09:45:00,
2013-01-11 02:55:00,35.8,35.3,29.35,SSW,200,0.0,14.0,98,0.00,,,0.00,Wunderground v.1.13,2013-01-11 09:55:00,
2013-01-11 03:00:00,35.8,35.3,29.35,SSW,200,0.0,14.0,98,0.00,,,0.00,Wunderground v.1.13,2013-01-11 10:00:00,
2013-01-11 03:05:00,35.6,35.1,29.35,SSW,209,1.0,1.0,98,0.00,,,0.00,Wunderground v.1.13,2013-01-11 10:05:00,
2013-01-11 03:10:00,35.5,35.0,29.35,SSW,209,1.0,1.0,98,0.00,,,0.00,Wunderground v.1.13,2013-01-11 10:10:00,
2013-01-11 03:15:00,35.5,35.0,29.34,SSW,209,0.0,14.0,98,0.00,,,0.00,Wunderground v.1.13,2013-01-11 10:15:00,
2013-01-11 03:20:00,35.3,34.8,29.34,SSW,212,1.0,14.0,98,0.00,,,0.00,Wunderground v.1.13,2013-01-11 10:20:00,
2013-01-11 03:30:00,35.2,34.7,29.34,SSW,212,2.0,2.0,98,0.00,,,0.00,Wunderground v.1.13,2013-01-11 10:30:00,
2013-01-11 03:35:00,35.0,34.5,29.34,SSW,212,0.0,14.0,98,0.00,,,0.00,Wunderground v.1.13,2013-01-11 10:35:00,
2013-01-11 03:40:00,35.0,34.5,29.34,SSW,212,0.0,14.0,98,0.00,,,0.00,Wunderground v.1.13,2013-01-11 10:40:00,
2013-01-11 03:45:00,34.9,34.4,29.34,SSW,212,0.0,14.0,98,0.00,,,0.00,Wunderground v.1.13,2013-01-11 10:45:00,
2013-01-11 03:55:00,34.7,34.2,29.32,SSW,212,0.0,14.0,98,0.00,,,0.00,Wunderground v.1.13,2013-01-11 10:55:00,
2013-01-11 04:00:00,34.6,34.1,29.31,SSW,212,0.0,14.0,98,0.00,,,0.00,Wunderground v.1.13,2013-01-11 11:00:00,
2013-01-11 04:10:00,34.1,33.6,29.31,SSW,212,0.0,14.0,98,0.00,,,0.00,Wunderground v.1.13,2013-01-11 11:10:00,
2013-01-11 04:15:00,34.1,33.6,29.31,SSW,212,0.0,14.0,98,0.00,,,0.00,Wunderground v.1.13,2013-01-11 11:15:00,
2013-01-11 04:20:00,34.0,33.5,29.30,SSW,212,0.0,14.0,98,0.00,,,0.00,Wunderground v.1.13,2013-01-11 11:20:00,
2013-01-11 04:25:00,34.0,33.5,29.30,SSW,212,0.0,14.0,98,0.00,,,0.00,Wunderground v.1.13,2013-01-11 11:25:00,
2013-01-11 04:34:00,33.8,33.3,29.30,SSW,212,0.0,14.0,98,0.00,,,0.00,Wunderground v.1.13,2013-01-11 11:34:00,
2013-01-11 04:40:00,33.8,33.3,29.30,SSW,212,0.0,14.0,98,0.00,,,0.00,Wunderground v.1.13,2013-01-11 11:40:00,
2013-01-11 04:45:00,33.7,33.2,29.30,SSW,212,0.0,14.0,98,0.00,,,0.00,Wunderground v.1.13,2013-01-11 11:45:00,
2013-01-11 04:50:00,33.7,33.2,29.29,SSW,212,0.0,14.0,98,0.00,,,0.00,Wunderground v.1.13,2013-01-11 11:50:00,
2013-01-11 04:55:00,33.7,33.2,29.29,SSW,212,0.0,14.0,98,0.00,,,0.00,Wunderground v.1.13,2013-01-11 11:55:00,
2013-01-11 05:00:00,33.7,33.2,29.29,SSW,212,0.0,14.0,98,0.00,,,0.00,Wunderground v.1.13,2013-01-11 12:00:00,
2013-01-11 05:05:00,33.7,33.2,29.30,SSW,212,0.0,14.0,98,0.00,,,0.00,Wunderground v.1.13,2013-01-11 12:05:00,
2013-01-11 05:09:00,33.5,33.0,29.30,SSW,212,0.0,14.0,98,0.00,,,0.00,Wunderground v.1.13,2013-01-11 12:09:00,
2013-01-11 05:15:00,33.4,32.9,29.29,SSW,212,0.0,14.0,98,0.00,,,0.00,Wunderground v.1.13,2013-01-11 12:15:00,
2013-01-11 05:20:00,33.4,32.9,29.29,SSW,212,0.0,14.0,98,0.00,,,0.00,Wunderground v.1.13,2013-01-11 12:20:00,
2013-01-11 05:25:00,33.2,32.7,29.29,SSW,212,0.0,14.0,98,0.00,,,0.00,Wunderground v.1.13,2013-01-11 12:25:00,
2013-01-11 05:30:00,33.1,32.6,29.29,SSW,212,0.0,14.0,98,0.00,,,0.00,Wunderground v.1.13,2013-01-11 12:30:00,
2013-01-11 05:35:00,32.9,32.1,29.27,SSW,212,0.0,14.0,97,0.00,,,0.00,Wunderground v.1.13,2013-01-11 12:35:00,
2013-01-11 05:40:00,32.8,32.0,29.27,SSW,212,0.0,14.0,97,0.00,,,0.00,Wunderground v.1.13,2013-01-11 12:40:00,
2013-01-11 05:45:00,32.7,31.9,29.27,SSW,212,0.0,14.0,97,0.00,,,0.00,Wunderground v.1.13,2013-01-11 12:45:00,
2013-01-11 05:50:00,32.5,31.7,29.28,SSW,212,0.0,14.0,97,0.00,,,0.00,Wunderground v.1.13,2013-01-11 12:50:00,
2013-01-11 05:55:00,32.5,31.7,29.28,SSW,212,0.0,14.0,97,0.00,,,0.00,Wunderground v.1.13,2013-01-11 12:55:00,
2013-01-11 06:00:00,32.5,31.7,29.28,SSW,212,0.0,14.0,97,0.00,,,0.00,Wunderground v.1.13,2013-01-11 13:00:00,
2013-01-11 06:05:00,32.5,32.0,29.28,SSW,212,0.0,14.0,98,0.00,,,0.00,Wunderground v.1.13,2013-01-11 13:05:00,
2013-01-11 06:10:00,32.4,31.6,29.28,SSW,212,0.0,14.0,97,0.00,,,0.00,Wunderground v.1.13,2013-01-11 13:10:00,
2013-01-11 06:15:00,32.2,31.4,29.28,SSW,212,0.0,14.0,97,0.00,,,0.00,Wunderground v.1.13,2013-01-11 13:15:00,
2013-01-11 06:20:00,32.1,31.3,29.28,SSW,212,0.0,14.0,97,0.00,,,0.00,Wunderground v.1.13,2013-01-11 13:20:00,
2013-01-11 06:25:00,32.1,31.3,29.28,SSW,212,0.0,14.0,97,0.00,,,0.00,Wunderground v.1.13,2013-01-11 13:25:00,
2013-01-11 06:30:00,32.2,31.4,29.28,SSW,212,0.0,14.0,97,0.00,,,0.00,Wunderground v.1.13,2013-01-11 13:30:00,
2013-01-11 06:40:00,32.2,31.4,29.27,SSW,212,0.0,14.0,97,0.00,,,0.00,Wunderground v.1.13,2013-01-11 13:40:00,
2013-01-11 06:45:00,32.2,31.4,29.28,SSW,211,0.0,14.0,97,0.00,,,0.00,Wunderground v.1.13,2013-01-11 13:45:00,
2013-01-11 06:55:00,31.9,31.1,29.28,SSW,212,0.0,14.0,97,0.00,,,0.00,Wunderground v.1.13,2013-01-11 13:55:00,
2013-01-11 07:00:00,31.9,31.1,29.28,SSW,211,0.0,14.0,97,0.00,,,0.00,Wunderground v.1.13,2013-01-11 14:00:00,
2013-01-11 07:05:00,31.9,31.1,29.30,SSW,211,0.0,14.0,97,0.00,,,0.00,Wunderground v.1.13,2013-01-11 14:05:00,
2013-01-11 07:10:00,31.8,31.3,29.30,SSW,211,0.0,14.0,98,0.00,,,0.00,Wunderground v.1.13,2013-01-11 14:10:00,
2013-01-11 07:15:00,31.8,31.3,29.30,SSW,211,0.0,14.0,98,0.00,,,0.00,Wunderground v.1.13,2013-01-11 14:15:00,
2013-01-11 07:20:00,31.6,31.1,29.30,SSW,211,0.0,14.0,98,0.00,,,0.00,Wunderground v.1.13,2013-01-11 14:20:00,
2013-01-11 07:25:00,31.6,30.8,29.30,SSW,211,0.0,14.0,97,0.00,,,0.00,Wunderground v.1.13,2013-01-11 14:25:00,
2013-01-11 07:30:00,31.6,31.1,29.31,SSW,211,0.0,14.0,98,0.00,,,0.00,Wunderground v.1.13,2013-01-11 14:30:00,
2013-01-11 07:35:00,31.6,30.8,29.31,SSW,211,0.0,14.0,97,0.00,,,0.00,Wunderground v.1.13,2013-01-11 14:35:00,
2013-01-11 07:45:00,31.8,31.0,29.31,SSW,212,0.0,14.0,97,0.00,,,0.00,Wunderground v.1.13,2013-01-11 14:45:00,
2013-01-11 07:50:00,31.8,31.0,29.32,SSW,211,0.0,14.0,97,0.00,,,0.00,Wunderground v.1.13,2013-01-11 14:50:00,
2013-01-11 08:00:00,31.8,31.3,29.32,SSW,211,0.0,14.0,98,0.00,,,0.00,Wunderground v.1.13,2013-01-11 15:00:00,
2013-01-11 08:10:00,31.8,31.3,29.32,SSW,212,0.0,14.0,98,0.00,,,0.00,Wunderground v.1.13,2013-01-11 15:10:00,
2013-01-11 08:15:00,31.9,31.4,29.30,NNW,340,0.0,14.0,98,0.00,,,0.00,Wunderground v.1.13,2013-01-11 15:15:00,
2013-01-11 08:25:00,32.1,31.6,29.30,NNW,340,0.0,14.0,98,0.00,,,0.00,Wunderground v.1.13,2013-01-11 15:25:00,
2013-01-11 08:30:00,32.2,31.7,29.30,NNW,340,0.0,14.0,98,0.00,,,0.00,Wunderground v.1.13,2013-01-11 15:30:00,
2013-01-11 08:35:00,32.4,31.9,29.31,NNW,340,0.0,14.0,98,0.00,,,0.00,Wunderground v.1.13,2013-01-11 15:35:00,
2013-01-11 08:40:00,32.7,32.2,29.31,NNW,340,0.0,14.0,98,0.00,,,0.00,Wunderground v.1.13,2013-01-11 15:40:00,
2013-01-11 08:45:00,32.9,32.9,29.30,North,351,1.0,14.0,100,0.00,,,0.00,Wunderground v.1.13,2013-01-11 15:45:00,
2013-01-11 08:50:00,33.1,32.6,29.30,NNE,13,2.0,14.0,98,0.00,,,0.00,Wunderground v.1.13,2013-01-11 15:50:00,
2013-01-11 08:55:00,33.2,32.7,29.30,North,11,4.0,14.0,98,0.00,,,0.00,Wunderground v.1.13,2013-01-11 15:55:00,
2013-01-11 09:00:00,33.4,32.9,29.30,North,11,4.0,14.0,98,0.00,,,0.00,Wunderground v.1.13,2013-01-11 16:00:00,
2013-01-11 09:05:00,33.5,33.0,29.29,NNE,31,5.0,5.0,98,0.00,,,0.00,Wunderground v.1.13,2013-01-11 16:05:00,
2013-01-11 09:10:00,33.7,33.2,29.29,North,360,5.0,14.0,98,0.00,,,0.00,Wunderground v.1.13,2013-01-11 16:10:00,
2013-01-11 09:15:00,34.0,33.5,29.28,North,11,6.0,14.0,98,0.00,,,0.00,Wunderground v.1.13,2013-01-11 16:15:00,
2013-01-11 09:20:00,34.0,33.5,29.28,NNE,28,7.0,7.0,98,0.00,,,0.00,Wunderground v.1.13,2013-01-11 16:20:00,
2013-01-11 09:25:00,34.3,33.8,29.28,NNE,24,6.0,6.0,98,0.00,,,0.00,Wunderground v.1.13,2013-01-11 16:25:00,
2013-01-11 09:35:00,34.6,34.1,29.31,NNE,22,3.0,14.0,98,0.00,,,0.00,Wunderground v.1.13,2013-01-11 16:35:00,
2013-01-11 09:40:00,34.6,34.1,29.31,NNE,32,5.0,14.0,98,0.00,,,0.00,Wunderground v.1.13,2013-01-11 16:40:00,
2013-01-11 09:45:00,34.6,34.1,29.31,North,5,5.0,5.0,98,0.00,,,0.00,Wunderground v.1.13,2013-01-11 16:45:00,
2013-01-11 09:50:00,34.9,34.4,29.31,NNE,17,3.0,14.0,98,0.00,,,0.00,Wunderground v.1.13,2013-01-11 16:50:00,
2013-01-11 09:55:00,34.9,34.4,29.31,NNE,15,5.0,5.0,98,0.00,,,0.00,Wunderground v.1.13,2013-01-11 16:55:00,
2013-01-11 10:00:00,34.7,34.2,29.31,NNE,25,6.0,14.0,98,0.00,,,0.00,Wunderground v.1.13,2013-01-11 17:00:00,
2013-01-11 10:10:00,32.9,32.4,29.31,North,10,10.0,10.0,98,0.00,,,0.00,Wunderground v.1.13,2013-01-11 17:10:00,
2013-01-11 10:15:00,32.9,32.4,29.31,North,11,8.0,8.0,98,0.00,,,0.00,Wunderground v.1.13,2013-01-11 17:15:00,
2013-01-11 10:20:00,32.7,32.2,29.32,NNE,19,8.0,8.0,98,0.00,,,0.00,Wunderground v.1.13,2013-01-11 17:20:00,
2013-01-11 10:25:00,32.5,32.0,29.32,NE,37,10.0,10.0,98,0.00,,,0.00,Wunderground v.1.13,2013-01-11 17:25:00,
2013-01-11 10:30:00,32.5,32.0,29.32,NNE,19,8.0,8.0,98,0.00,,,0.00,Wunderground v.1.13,2013-01-11 17:30:00,
2013-01-11 10:35:00,32.1,31.3,29.30,NNE,31,6.0,14.0,97,0.00,,,0.00,Wunderground v.1.13,2013-01-11 17:35:00,
2013-01-11 10:40:00,31.9,31.1,29.30,NNE,26,8.0,14.0,97,0.00,,,0.00,Wunderground v.1.13,2013-01-11 17:40:00,
2013-01-11 10:45:00,31.5,30.7,29.30,NNE,27,9.0,14.0,97,0.00,,,0.00,Wunderground v.1.13,2013-01-11 17:45:00,
2013-01-11 10:50:00,31.3,30.5,29.30,NNE,22,9.0,9.0,97,0.00,,,0.00,Wunderground v.1.13,2013-01-11 17:50:00,
2013-01-11 10:55:00,31.2,30.4,29.30,NNE,17,9.0,15.0,97,0.00,,,0.00,Wunderground v.1.13,2013-01-11 17:55:00,
2013-01-11 11:00:00,31.0,30.2,29.28,NE,51,9.0,14.0,97,0.00,,,0.00,Wunderground v.1.13,2013-01-11 18:00:00,
2013-01-11 11:10:00,30.9,30.1,29.28,NNE,24,9.0,14.0,97,0.00,,,0.00,Wunderground v.1.13,2013-01-11 18:10:00,
2013-01-11 11:15:00,30.9,30.1,29.28,NE,46,10.0,10.0,97,0.00,,,0.00,Wunderground v.1.13,2013-01-11 18:15:00,
2013-01-11 11:20:00,31.0,30.2,29.28,NE,39,9.0,14.0,97,0.00,,,0.00,Wunderground v.1.13,2013-01-11 18:20:00,
2013-01-11 11:25:00,31.0,30.2,29.28,NNE,29,8.0,14.0,97,0.00,,,0.00,Wunderground v.1.13,2013-01-11 18:25:00,
2013-01-11 11:35:00,30.1,29.4,29.28,NNE,17,10.0,22.0,97,0.00,,,0.00,Wunderground v.1.13,2013-01-11 18:35:00,
2013-01-11 11:40:00,29.8,29.1,29.28,North,11,12.0,15.0,97,0.00,,,0.00,Wunderground v.1.13,2013-01-11 18:40:00,
2013-01-11 11:45:00,29.7,29.0,29.28,NNE,16,11.0,11.0,97,0.00,,,0.00,Wunderground v.1.13,2013-01-11 18:45:00,
2013-01-11 11:55:00,29.1,28.4,29.28,NNW,344,14.0,14.0,97,0.00,,,0.00,Wunderground v.1.13,2013-01-11 18:55:00,
2013-01-11 12:05:00,29.0,28.0,29.28,NNE,20,11.0,14.0,96,0.00,,,0.00,Wunderground v.1.13,2013-01-11 19:05:00,
2013-01-11 12:10:00,29.0,28.0,29.28,NE,34,12.0,18.0,96,0.00,,,0.00,Wunderground v.1.13,2013-01-11 19:10:00,
2013-01-11 12:15:00,29.0,28.0,29.29,North,351,10.0,15.0,96,0.00,,,0.00,Wunderground v.1.13,2013-01-11 19:15:00,
2013-01-11 12:20:00,28.8,27.8,29.29,North,351,10.0,14.0,96,0.00,,,0.00,Wunderground v.1.13,2013-01-11 19:20:00,
2013-01-11 12:25:00,28.5,27.5,29.29,NNE,14,12.0,14.0,96,0.00,,,0.00,Wunderground v.1.13,2013-01-11 19:25:00,
2013-01-11 12:30:00,28.5,27.5,29.29,North,360,11.0,14.0,96,0.00,,,0.00,Wunderground v.1.13,2013-01-11 19:30:00,
2013-01-11 12:35:00,28.4,27.4,29.30,NNE,28,11.0,15.0,96,0.00,,,0.00,Wunderground v.1.13,2013-01-11 19:35:00,
2013-01-11 12:40:00,28.2,27.2,29.30,North,360,11.0,16.0,96,0.00,,,0.00,Wunderground v.1.13,2013-01-11 19:40:00,
2013-01-11 12:50:00,28.1,27.1,29.31,NNE,15,11.0,14.0,96,0.00,,,0.00,Wunderground v.1.13,2013-01-11 19:50:00,
2013-01-11 12:55:00,27.9,26.9,29.31,NNE,32,12.0,16.0,96,0.00,,,0.00,Wunderground v.1.13,2013-01-11 19:55:00,
2013-01-11 13:00:00,27.6,26.4,29.32,North,360,12.0,12.0,95,0.00,,,0.00,Wunderground v.1.13,2013-01-11 20:00:00,
2013-01-11 13:05:00,27.5,26.3,29.32,NNE,26,12.0,12.0,95,0.00,,,0.00,Wunderground v.1.13,2013-01-11 20:05:00,
2013-01-11 13:10:00,27.3,26.1,29.32,North,360,12.0,12.0,95,0.00,,,0.00,Wunderground v.1.13,2013-01-11 20:10:00,
2013-01-11 13:15:00,27.3,26.1,29.32,NNE,26,11.0,15.0,95,0.00,,,0.00,Wunderground v.1.13,2013-01-11 20:15:00,
2013-01-11 13:20:00,27.3,26.1,29.32,NW,326,11.0,14.0,95,0.00,,,0.00,Wunderground v.1.13,2013-01-11 20:20:00,
2013-01-11 13:30:00,26.9,25.4,29.32,North,351,13.0,22.0,94,0.00,,,0.00,Wunderground v.1.13,2013-01-11 20:30:00,
2013-01-11 13:35:00,26.7,25.2,29.34,North,360,12.0,12.0,94,0.00,,,0.00,Wunderground v.1.13,2013-01-11 20:35:00,
2013-01-11 13:40:00,26.7,25.2,29.34,North,351,11.0,11.0,94,0.00,,,0.00,Wunderground v.1.13,2013-01-11 20:40:00,
2013-01-11 13:45:00,26.6,25.1,29.34,NNW,337,9.0,14.0,94,0.00,,,0.00,Wunderground v.1.13,2013-01-11 20:45:00,
2013-01-11 13:50:00,26.6,25.1,29.36,North,351,8.0,14.0,94,0.00,,,0.00,Wunderground v.1.13,2013-01-11 20:50:00,
2013-01-11 13:55:00,26.4,24.9,29.36,North,360,8.0,14.0,94,0.00,,,0.00,Wunderground v.1.13,2013-01-11 20:55:00,
2013-01-11 14:00:00,26.4,24.7,29.36,North,351,10.0,14.0,93,0.00,,,0.00,Wunderground v.1.13,2013-01-11 21:00:00,
2013-01-11 14:05:00,26.1,24.4,29.36,NNW,336,12.0,18.0,93,0.00,,,0.00,Wunderground v.1.13,2013-01-11 21:05:00,
2013-01-11 14:10:00,25.8,24.1,29.36,NNE,12,15.0,15.0,93,0.00,,,0.00,Wunderground v.1.13,2013-01-11 21:10:00,
2013-01-11 14:15:00,25.8,23.8,29.36,North,351,15.0,15.0,92,0.00,,,0.00,Wunderground v.1.13,2013-01-11 21:15:00,
2013-01-11 14:20:00,25.7,23.7,29.39,North,360,13.0,13.0,92,0.00,,,0.00,Wunderground v.1.13,2013-01-11 21:20:00,
2013-01-11 14:25:00,25.6,23.6,29.39,North,351,11.0,11.0,92,0.00,,,0.00,Wunderground v.1.13,2013-01-11 21:25:00,
2013-01-11 14:30:00,25.3,23.3,29.39,NW,321,12.0,12.0,92,0.00,,,0.00,Wunderground v.1.13,2013-01-11 21:30:00,
2013-01-11 14:35:00,24.8,22.8,29.40,North,360,13.0,13.0,92,0.00,,,0.00,Wunderground v.1.13,2013-01-11 21:35:00,
2013-01-11 14:45:00,24.7,22.4,29.44,NNE,15,12.0,17.0,91,0.00,,,0.00,Wunderground v.1.13,2013-01-11 21:45:00,
2013-01-11 14:50:00,24.7,22.4,29.44,North,350,12.0,12.0,91,0.00,,,0.00,Wunderground v.1.13,2013-01-11 21:50:00,
2013-01-11 14:55:00,24.2,22.0,29.44,NW,325,13.0,31.0,91,0.00,,,0.00,Wunderground v.1.13,2013-01-11 21:55:00,
2013-01-11 15:00:00,23.8,21.3,29.44,NNW,340,13.0,13.0,90,0.00,,,0.00,Wunderground v.1.13,2013-01-11 22:00:00,
2013-01-11 15:05:00,23.6,21.1,29.46,NNW,335,12.0,12.0,90,0.00,,,0.00,Wunderground v.1.13,2013-01-11 22:05:00,
2013-01-11 15:10:00,23.5,20.7,29.46,North,360,12.0,12.0,89,0.00,,,0.00,Wunderground v.1.13,2013-01-11 22:10:00,
2013-01-11 15:15:00,23.5,20.7,29.46,North,350,12.0,12.0,89,0.00,,,0.00,Wunderground v.1.13,2013-01-11 22:15:00,
2013-01-11 15:20:00,23.3,20.5,29.48,WNW,302,12.0,12.0,89,0.00,,,0.00,Wunderground v.1.13,2013-01-11 22:20:00,
2013-01-11 15:25:00,22.9,19.9,29.48,North,360,14.0,14.0,88,0.00,,,0.00,Wunderground v.1.13,2013-01-11 22:25:00,
2013-01-11 15:30:00,22.7,19.7,29.48,North,360,11.0,24.0,88,0.00,,,0.00,Wunderground v.1.13,2013-01-11 22:30:00,
2013-01-11 15:40:00,21.8,18.5,29.49,NNW,327,16.0,18.0,87,0.00,,,0.00,Wunderground v.1.13,2013-01-11 22:40:00,
2013-01-11 15:45:00,21.4,18.4,29.49,NNE,25,14.0,14.0,88,0.00,,,0.00,Wunderground v.1.13,2013-01-11 22:45:00,
2013-01-11 15:50:00,21.1,18.4,29.51,NW,325,14.0,14.0,89,0.00,,,0.00,Wunderground v.1.13,2013-01-11 22:50:00,
2013-01-11 15:55:00,21.1,18.6,29.51,NNW,340,13.0,13.0,90,0.00,,,0.00,Wunderground v.1.13,2013-01-11 22:55:00,
2013-01-11 16:00:00,21.0,18.5,29.51,North,11,12.0,12.0,90,0.00,,,0.00,Wunderground v.1.13,2013-01-11 23:00:00,
2013-01-11 16:05:00,21.0,18.5,29.52,NNW,346,12.0,12.0,90,0.00,,,0.00,Wunderground v.1.13,2013-01-11 23:05:00,
2013-01-11 16:10:00,21.0,18.5,29.52,North,360,12.0,18.0,90,0.00,,,0.00,Wunderground v.1.13,2013-01-11 23:10:00,
2013-01-11 16:15:00,20.5,18.0,29.52,NNW,329,12.0,14.0,90,0.00,,,0.00,Wunderground v.1.13,2013-01-11 23:15:00,
2013-01-11 16:20:00,20.3,17.8,29.52,North,351,12.0,15.0,90,0.00,,,0.00,Wunderground v.1.13,2013-01-11 23:20:00,
2013-01-11 16:25:00,19.7,17.0,29.52,NNW,333,13.0,20.0,89,0.00,,,0.00,Wunderground v.1.13,2013-01-11 23:25:00,
2013-01-11 16:30:00,19.2,16.7,29.52,NW,319,16.0,16.0,90,0.00,,,0.01,Wunderground v.1.13,2013-01-11 23:30:00,
2013-01-11 16:40:00,18.4,15.7,29.54,NNW,335,17.0,17.0,89,0.00,,,0.01,Wunderground v.1.13,2013-01-11 23:40:00,
2013-01-11 16:45:00,18.1,15.4,29.54,NNW,327,17.0,17.0,89,0.00,,,0.01,Wunderground v.1.13,2013-01-11 23:45:00,
2013-01-11 16:50:00,18.0,15.0,29.56,NW,325,17.0,17.0,88,0.00,,,0.01,Wunderground v.1.13,2013-01-11 23:50:00,
2013-01-11 17:00:00,18.1,14.9,29.56,NNE,18,14.0,14.0,87,0.00,,,0.01,Wunderground v.1.13,2013-01-12 00:00:00,
2013-01-11 17:05:00,18.1,14.6,29.58,NNE,17,16.0,16.0,86,0.00,,,0.01,Wunderground v.1.13,2013-01-12 00:05:00,
2013-01-11 17:10:00,18.0,14.3,29.58,NNW,340,15.0,15.0,85,0.00,,,0.01,Wunderground v.1.13,2013-01-12 00:10:00,
2013-01-11 17:15:00,17.7,13.7,29.58,North,360,14.0,14.0,84,0.00,,,0.01,Wunderground v.1.13,2013-01-12 00:15:00,
2013-01-11 17:20:00,17.7,14.5,29.59,North,360,15.0,15.0,87,0.00,,,0.01,Wunderground v.1.13,2013-01-12 00:20:00,
2013-01-11 17:25:00,17.7,13.4,29.59,North,360,14.0,14.0,83,0.00,,,0.01,Wunderground v.1.13,2013-01-12 00:25:00,
2013-01-11 17:30:00,17.7,13.1,29.59,NW,320,13.0,18.0,82,0.00,,,0.01,Wunderground v.1.13,2013-01-12 00:30:00,
2013-01-11 17:35:00,17.8,13.2,29.62,NW,323,13.0,13.0,82,0.00,,,0.01,Wunderground v.1.13,2013-01-12 00:35:00,
2013-01-11 17:40:00,17.8,13.0,29.62,NW,324,12.0,14.0,81,0.00,,,0.01,Wunderground v.1.13,2013-01-12 00:40:00,
2013-01-11 17:45:00,17.8,12.7,29.62,NNW,340,13.0,13.0,80,0.00,,,0.01,Wunderground v.1.13,2013-01-12 00:45:00,
2013-01-11 17:50:00,17.7,12.3,29.64,NW,318,13.0,21.0,79,0.00,,,0.01,Wunderground v.1.13,2013-01-12 00:50:00,
2013-01-11 17:55:00,17.7,12.3,29.64,NW,307,13.0,19.0,79,0.00,,,0.01,Wunderground v.1.13,2013-01-12 00:55:00,
2013-01-11 18:00:00,17.5,12.1,29.65,NW,325,13.0,13.0,79,0.00,,,0.01,Wunderground v.1.13,2013-01-12 01:00:00,
2013-01-11 18:05:00,17.5,11.8,29.65,NNW,338,12.0,12.0,78,0.00,,,0.01,Wunderground v.1.13,2013-01-12 01:05:00,
2013-01-11 18:10:00,17.3,11.3,29.65,NW,311,12.0,14.0,77,0.00,,,0.01,Wunderground v.1.13,2013-01-12 01:10:00,
2013-01-11 18:15:00,17.2,11.2,29.65,NNW,340,13.0,13.0,77,0.00,,,0.01,Wunderground v.1.13,2013-01-12 01:15:00,
2013-01-11 18:20:00,17.0,11.0,29.66,NW,312,13.0,13.0,77,0.00,,,0.01,Wunderground v.1.13,2013-01-12 01:20:00,
2013-01-11 18:25:00,16.9,10.9,29.66,NW,317,11.0,11.0,77,0.00,,,0.01,Wunderground v.1.13,2013-01-12 01:25:00,
2013-01-11 18:30:00,16.7,11.0,29.66,NNE,15,10.0,10.0,78,0.00,,,0.01,Wunderground v.1.13,2013-01-12 01:30:00,
2013-01-11 18:35:00,16.4,10.4,29.67,NNW,345,9.0,14.0,77,0.00,,,0.01,Wunderground v.1.13,2013-01-12 01:35:00,
2013-01-11 18:40:00,16.2,10.3,29.67,NNW,330,8.0,8.0,77,0.00,,,0.01,Wunderground v.1.13,2013-01-12 01:40:00,
2013-01-11 18:45:00,16.2,10.3,29.67,NNW,330,7.0,7.0,77,0.00,,,0.01,Wunderground v.1.13,2013-01-12 01:45:00,
2013-01-11 18:50:00,16.4,10.4,29.70,NNW,337,6.0,14.0,77,0.00,,,0.01,Wunderground v.1.13,2013-01-12 01:50:00,
2013-01-11 18:55:00,16.4,10.4,29.70,NNW,338,6.0,14.0,77,0.00,,,0.01,Wunderground v.1.13,2013-01-12 01:55:00,
2013-01-11 19:00:00,16.4,10.4,29.70,NW,317,7.0,7.0,77,0.00,,,0.01,Wunderground v.1.13,2013-01-12 02:00:00,
2013-01-11 19:05:00,16.4,10.4,29.72,WNW,297,5.0,14.0,77,0.00,,,0.01,Wunderground v.1.13,2013-01-12 02:05:00,
2013-01-11 19:10:00,16.4,10.4,29.72,NNW,342,5.0,14.0,77,0.00,,,0.01,Wunderground v.1.13,2013-01-12 02:10:00,
2013-01-11 19:15:00,16.4,10.4,29.72,NW,309,7.0,14.0,77,0.00,,,0.01,Wunderground v.1.13,2013-01-12 02:15:00,
2013-01-11 19:20:00,16.2,10.0,29.73,NW,314,6.0,6.0,76,0.00,,,0.01,Wunderground v.1.13,2013-01-12 02:20:00,
2013-01-11 19:25:00,16.2,10.0,29.73,NW,312,6.0,14.0,76,0.00,,,0.01,Wunderground v.1.13,2013-01-12 02:25:00,
2013-01-11 19:30:00,16.1,9.9,29.73,NNW,334,6.0,14.0,76,0.00,,,0.01,Wunderground v.1.13,2013-01-12 02:30:00,
2013-01-11 19:35:00,16.1,9.9,29.74,NW,309,5.0,14.0,76,0.00,,,0.01,Wunderground v.1.13,2013-01-12 02:35:00,
2013-01-11 19:45:00,15.9,9.7,29.75,WNW,291,4.0,14.0,76,0.00,,,0.01,Wunderground v.1.13,2013-01-12 02:45:00,
2013-01-11 19:55:00,15.7,9.2,29.75,NW,315,7.0,14.0,75,0.00,,,0.01,Wunderground v.1.13,2013-01-12 02:55:00,
2013-01-11 20:00:00,15.6,8.8,29.75,WNW,295,8.0,8.0,74,0.00,,,0.01,Wunderground v.1.13,2013-01-12 03:00:00,
2013-01-11 20:05:00,15.4,8.3,29.75,WNW,294,6.0,6.0,73,0.00,,,0.01,Wunderground v.1.13,2013-01-12 03:05:00,
2013-01-11 20:10:00,15.2,8.1,29.75,NW,315,7.0,14.0,73,0.00,,,0.01,Wunderground v.1.13,2013-01-12 03:10:00,
2013-01-11 20:15:00,15.1,7.7,29.75,WNW,290,5.0,5.0,72,0.00,,,0.01,Wunderground v.1.13,2013-01-12 03:15:00,
2013-01-11 20:25:00,14.8,7.4,29.76,WNW,291,5.0,5.0,72,0.00,,,0.01,Wunderground v.1.13,2013-01-12 03:25:00,
2013-01-11 20:30:00,14.6,6.9,29.78,WNW,301,7.0,7.0,71,0.00,,,0.01,Wunderground v.1.13,2013-01-12 03:30:00,
2013-01-11 20:35:00,14.6,6.9,29.78,WNW,295,8.0,8.0,71,0.00,,,0.01,Wunderground v.1.13,2013-01-12 03:35:00,
2013-01-11 20:40:00,14.6,6.9,29.78,NW,320,8.0,15.0,71,0.00,,,0.01,Wunderground v.1.13,2013-01-12 03:40:00,
2013-01-11 20:50:00,14.4,6.4,29.79,NW,310,10.0,14.0,70,0.00,,,0.01,Wunderground v.1.13,2013-01-12 03:50:00,
2013-01-11 20:55:00,14.4,6.4,29.79,NW,311,11.0,14.0,70,0.00,,,0.01,Wunderground v.1.13,2013-01-12 03:55:00,
2013-01-11 21:00:00,14.1,6.4,29.79,NW,309,9.0,14.0,71,0.00,,,0.01,Wunderground v.1.13,2013-01-12 04:00:00,
2013-01-11 21:05:00,14.1,6.4,29.79,NW,321,7.0,7.0,71,0.00,,,0.01,Wunderground v.1.13,2013-01-12 04:05:00,
2013-01-11 21:10:00,14.0,6.6,29.79,WNW,294,7.0,7.0,72,0.00,,,0.01,Wunderground v.1.13,2013-01-12 04:10:00,
2013-01-11 21:15:00,14.0,6.6,29.79,WNW,286,7.0,7.0,72,0.00,,,0.01,Wunderground v.1.13,2013-01-12 04:15:00,
2013-01-11 21:25:00,13.6,6.2,29.80,West,277,4.0,4.0,72,0.00,,,0.01,Wunderground v.1.13,2013-01-12 04:25:00,
2013-01-11 21:35:00,13.3,6.3,29.82,NW,314,3.0,14.0,73,0.00,,,0.01,Wunderground v.1.13,2013-01-12 04:35:00,
2013-01-11 21:40:00,13.1,6.1,29.82,NW,314,2.0,14.0,73,0.00,,,0.01,Wunderground v.1.13,2013-01-12 04:40:00,
2013-01-11 21:45:00,12.9,5.9,29.82,NW,308,1.0,14.0,73,0.00,,,0.01,Wunderground v.1.13,2013-01-12 04:45:00,
2013-01-11 21:50:00,12.8,5.8,29.82,NW,308,1.0,14.0,73,0.00,,,0.01,Wunderground v.1.13,2013-01-12 04:50:00,
2013-01-11 21:55:00,12.4,5.4,29.82,WNW,294,1.0,1.0,73,0.00,,,0.01,Wunderground v.1.13,2013-01-12 04:55:00,
2013-01-11 22:00:00,12.3,5.0,29.82,WNW,293,1.0,1.0,72,0.00,,,0.01,Wunderground v.1.13,2013-01-12 05:00:00,
2013-01-11 22:05:00,12.3,5.0,29.83,WNW,286,0.0,14.0,72,0.00,,,0.01,Wunderground v.1.13,2013-01-12 05:05:00,
2013-01-11 22:10:00,11.9,4.6,29.83,WNW,286,1.0,1.0,72,0.00,,,0.01,Wunderground v.1.13,2013-01-12 05:10:00,
2013-01-11 22:15:00,11.7,4.4,29.83,WNW,299,1.0,14.0,72,0.00,,,0.01,Wunderground v.1.13,2013-01-12 05:15:00,
2013-01-11 22:20:00,11.7,4.4,29.84,WNW,291,2.0,2.0,72,0.00,,,0.01,Wunderground v.1.13,2013-01-12 05:20:00,
2013-01-11 22:25:00,11.7,4.1,29.84,NW,310,3.0,3.0,71,0.00,,,0.01,Wunderground v.1.13,2013-01-12 05:25:00,
2013-01-11 22:30:00,11.7,4.1,29.84,WNW,297,3.0,14.0,71,0.00,,,0.01,Wunderground v.1.13,2013-01-12 05:30:00,
2013-01-11 22:35:00,11.7,3.8,29.84,WNW,299,4.0,14.0,70,0.00,,,0.01,Wunderground v.1.13,2013-01-12 05:35:00,
2013-01-11 22:45:00,11.9,4.0,29.84,WNW,283,6.0,6.0,70,0.00,,,0.01,Wunderground v.1.13,2013-01-12 05:45:00,
2013-01-11 22:50:00,11.9,4.0,29.86,NW,308,6.0,14.0,70,0.00,,,0.01,Wunderground v.1.13,2013-01-12 05:50:00,
2013-01-11 22:55:00,11.9,4.0,29.86,NW,304,6.0,14.0,70,0.00,,,0.01,Wunderground v.1.13,2013-01-12 05:55:00,
2013-01-11 23:00:00,11.7,3.5,29.86,WNW,294,6.0,14.0,69,0.00,,,0.01,Wunderground v.1.13,2013-01-12 06:00:00,
2013-01-11 23:05:00,11.6,3.4,29.86,WNW,294,5.0,14.0,69,0.00,,,0.01,Wunderground v.1.13,2013-01-12 06:05:00,
2013-01-11 23:10:00,11.6,3.4,29.86,WNW,293,5.0,5.0,69,0.00,,,0.01,Wunderground v.1.13,2013-01-12 06:10:00,
2013-01-11 23:15:00,11.4,3.2,29.87,NW,315,5.0,5.0,69,0.00,,,0.01,Wunderground v.1.13,2013-01-12 06:15:00,
2013-01-11 23:20:00,11.1,2.9,29.87,WNW,288,5.0,14.0,69,0.00,,,0.01,Wunderground v.1.13,2013-01-12 06:20:00,
2013-01-11 23:25:00,10.9,2.7,29.87,NW,318,6.0,6.0,69,0.00,,,0.01,Wunderground v.1.13,2013-01-12 06:25:00,
2013-01-11 23:30:00,10.7,2.8,29.87,NNW,339,6.0,14.0,70,0.00,,,0.01,Wunderground v.1.13,2013-01-12 06:30:00,
2013-01-11 23:35:00,10.7,2.8,29.87,NNW,331,7.0,14.0,70,0.00,,,0.01,Wunderground v.1.13,2013-01-12 06:35:00,
2013-01-11 23:40:00,10.7,2.8,29.87,NW,321,6.0,14.0,70,0.00,,,0.01,Wunderground v.1.13,2013-01-12 06:40:00,
2013-01-11 23:45:00,10.9,2.7,29.87,NW,307,8.0,16.0,69,0.00,,,0.01,Wunderground v.1.13,2013-01-12 06:45:00,
2013-01-11 23:50:00,11.1,2.6,29.87,NW,308,9.0,14.0,68,0.00,,,0.01,Wunderground v.1.13,2013-01-12 06:50:00,
2013-01-11 23:55:00,11.2,2.7,29.87,NW,305,9.0,14.0,68,0.00,,,0.01,Wunderground v.1.13,2013-01-12 06:55:00,